Data for 10/08/2009

Time Sea-Level Adjusted Pressure Absolute Pressure Temperature Relative Humidity Dew Point   
(mb) (inHg) (mb) (inHg) (C) (F) (%) (C) (F)
00:05 1021 30.15 850 25.1 -2.5 27.5 91 -3.8 25.1
00:10 1021 30.15 850 25.1 -2.5 27.5 90 -3.9 24.9
00:15 1021 30.15 850 25.1 -2.5 27.5 90 -3.9 24.9
00:20 1021 30.15 850 25.1 -2.4 27.7 89 -4 24.9
00:25 1021 30.15 850 25.1 -2.4 27.7 89 -4 24.7
00:30 1021 30.15 850 25.1 -2.4 27.7 88 -4.1 24.6
00:35 1021 30.15 850 25.1 -2.4 27.6 88 -4.2 24.4
00:40 1021 30.15 850 25.1 -2.4 27.6 87 -4.4 24.1
00:45 1021 30.15 850 25.1 -2.5 27.5 85 -4.6 23.7
00:50 1021 30.15 850 25.1 -2.5 27.5 86 -4.6 23.8
00:55 1021 30.15 850 25.1 -2.6 27.3 84 -4.9 23.2
01:00 1021 30.15 850 25.1 -2.6 27.3 85 -4.8 23.3
01:05 1021 30.15 850 25.1 -2.6 27.3 84 -5 23
01:10 1021 30.15 850 25.1 -2.6 27.3 84 -4.9 23.2
01:15 1021 30.15 850 25.1 -2.7 27.2 85 -4.9 23.2
01:20 1021 30.15 850 25.1 -2.7 27.2 84 -5 23
01:25 1021 30.15 850 25.1 -2.7 27.2 84 -5.1 22.8
01:30 1021 30.15 850 25.1 -2.7 27.2 84 -5 22.9
01:35 1021 30.15 850 25.1 -2.7 27.1 84 -5 23
01:40 1021 30.15 850 25.1 -2.7 27.1 85 -4.9 23.1
01:45 1021 30.15 850 25.1 -2.8 27 85 -5.1 22.9
01:50 1021 30.15 850 25.1 -2.8 27 85 -5 22.9
01:55 1021 30.15 850 25.1 -2.8 26.9 86 -4.8 23.3
02:00 1020 30.12 850 25.1 -2.8 27 84 -5.1 22.8
02:05 1021 30.15 850 25.1 -2.8 26.9 85 -5 23
02:10 1021 30.15 850 25.1 -2.8 26.9 85 -5.1 22.9
02:15 1021 30.15 850 25.1 -2.8 26.9 85 -4.9 23.1
02:20 1021 30.15 850 25.1 -2.8 26.9 87 -4.8 23.4
02:25 1021 30.15 850 25.1 -2.9 26.7 87 -4.8 23.3
02:30 1021 30.15 850 25.1 -3 26.7 87 -4.9 23.2
02:35 1021 30.15 850 25.1 -3 26.7 87 -4.9 23.3
02:40 1021 30.15 850 25.1 -3 26.7 86 -5 22.9
02:45 1021 30.15 850 25.1 -2.9 26.7 86 -5 23
02:50 1021 30.15 850 25.1 -2.9 26.8 85 -5.1 22.9
02:55 1021 30.15 850 25.1 -2.9 26.8 86 -4.9 23.1
03:00 1021 30.15 850 25.1 -2.9 26.8 86 -4.9 23.2
03:05 1021 30.15 850 25.1 -2.9 26.7 85 -5 22.9
03:10 1021 30.15 850 25.1 -2.9 26.7 86 -5 23.1
03:15 1021 30.15 850 25.1 -3 26.7 86 -4.9 23.2
03:20 1021 30.15 850 25.1 -2.9 26.7 85 -5.2 22.6
03:25 1021 30.15 850 25.1 -2.9 26.8 85 -5 22.9
03:30 1021 30.15 850 25.1 -2.9 26.7 84 -5.2 22.6
03:35 1020 30.12 850 25.1 -2.9 26.7 85 -5 22.9
03:40 1020 30.12 850 25.1 -3 26.6 85 -5.1 22.9
03:45 1020 30.12 850 25.1 -3 26.7 86 -5.1 22.9
03:50 1021 30.15 850 25.1 -3 26.6 85 -5.1 22.8
03:55 1021 30.15 850 25.1 -3 26.6 86 -5 23
04:00 1021 30.15 850 25.1 -3 26.6 85 -5.1 22.8
04:05 1021 30.15 850 25.1 -3 26.7 86 -4.9 23.1
04:10 1021 30.15 850 25.1 -3 26.6 87 -4.9 23.1
04:15 1021 30.15 850 25.1 -3 26.6 88 -4.8 23.4
04:20 1021 30.15 850 25.1 -3 26.5 88 -4.8 23.3
04:25 1021 30.15 850 25.1 -3 26.6 87 -4.9 23.2
04:30 1021 30.15 850 25.1 -3 26.6 87 -5 23.1
04:35 1021 30.15 850 25.1 -3 26.6 86 -5 23
04:40 1021 30.15 850 25.1 -3 26.6 86 -5 23
04:45 1021 30.15 850 25.1 -3 26.6 86 -5 23
04:50 1021 30.15 850 25.1 -3 26.6 86 -5 23
04:55 1021 30.15 850 25.1 -3 26.6 86 -5 23.1
05:00 1021 30.15 850 25.1 -3 26.6 86 -5 23.1
05:05 1021 30.15 850 25.1 -3 26.7 85 -5.1 22.8
05:10 1021 30.15 850 25.1 -2.9 26.7 86 -5 23
05:15 1021 30.15 850 25.1 -2.9 26.7 85 -5.2 22.6
05:20 1021 30.15 850 25.1 -3 26.7 86 -5.1 22.9
05:25 1021 30.15 850 25.1 -3 26.7 85 -5.1 22.8
05:30 1021 30.15 850 25.1 -2.9 26.7 85 -5 22.9
05:35 1021 30.15 850 25.1 -3 26.7 87 -4.8 23.4
05:40 1021 30.15 850 25.1 -3.1 26.4 89 -4.7 23.5
05:45 1021 30.15 850 25.1 -3.2 26.3 89 -4.8 23.3
05:50 1021 30.15 850 25.1 -3.3 26.1 88 -4.9 23.1
05:55 1020 30.12 850 25.1 -3.2 26.2 89 -4.9 23.2
06:00 1021 30.15 850 25.1 -3.2 26.2 88 -4.9 23.3
06:05 1021 30.15 850 25.1 -3.2 26.3 88 -4.8 23.3
06:10 1021 30.15 850 25.1 -3.2 26.3 89 -4.7 23.5
06:15 1021 30.15 850 25.1 -3.2 26.3 89 -4.8 23.4
06:20 1021 30.15 850 25.1 -3.2 26.3 89 -4.8 23.4
06:25 1020 30.12 850 25.1 -3.3 26 89 -4.8 23.3
06:30 1021 30.15 850 25.1 -3.3 26 88 -5.1 22.8
06:35 1021 30.15 850 25.1 -3.4 25.9 88 -5.1 22.9
06:40 1020 30.12 850 25.1 -3.4 25.9 89 -5 23
06:45 1020 30.12 850 25.1 -3.5 25.7 89 -5.1 22.7
06:50 1020 30.12 850 25.1 -3.6 25.5 90 -5.1 22.9
06:55 1020 30.12 850 25.1 -3.6 25.6 89 -5.1 22.8
07:00 1020 30.12 850 25.1 -3.5 25.6 89 -5.1 22.9
07:05 1020 30.12 850 25.1 -3.5 25.7 90 -4.9 23.2
07:10 1020 30.12 849 25.07 -3.5 25.7 91 -4.7 23.5
07:15 1020 30.12 849 25.07 -3.5 25.6 91 -4.8 23.3
07:20 1020 30.12 849 25.07 -3.6 25.6 92 -4.7 23.6
07:25 1020 30.12 849 25.07 -3.6 25.6 92 -4.7 23.5
07:30 1020 30.12 849 25.07 -3.6 25.6 92 -4.7 23.5
07:35 1020 30.12 849 25.07 -3.6 25.6 91 -4.8 23.4
07:40 1020 30.12 849 25.07 -3.5 25.7 91 -4.8 23.4
07:45 1020 30.12 849 25.07 -3.6 25.6 91 -4.8 23.4
07:50 1020 30.12 849 25.07 -3.7 25.4 92 -4.8 23.4
07:55 1020 30.12 849 25.07 -3.8 25.2 93 -4.8 23.3
08:00 1020 30.12 849 25.07 -3.8 25.2 93 -4.7 23.5
08:05 1020 30.12 849 25.07 -3.8 25.2 92 -4.8 23.3
08:10 1020 30.12 849 25.07 -3.7 25.4 93 -4.7 23.6
08:15 1020 30.12 849 25.07 -3.5 25.7 90 -4.9 23.2
08:20 1020 30.12 849 25.07 -3.5 25.7 90 -4.9 23.1
08:25 1020 30.12 849 25.07 -3.5 25.8 90 -4.9 23.1
08:30 1020 30.12 849 25.07 -3.5 25.7 89 -5 23
08:35 1020 30.12 849 25.07 -3.3 26.1 88 -4.9 23.1
08:40 1020 30.12 849 25.07 -2.7 27.1 85 -4.9 23.3
08:45 1020 30.12 849 25.07 -2.2 28 83 -4.8 23.4
08:50 1020 30.12 849 25.07 -1.8 28.7 82 -4.5 23.8
08:55 1020 30.12 849 25.07 -1.4 29.4 79 -4.6 23.7
09:00 1020 30.12 849 25.07 -0.8 30.6 77 -4.4 24.2
09:05 1020 30.12 849 25.07 -1.3 29.6 78 -4.7 23.6
09:10 1020 30.12 849 25.07 -0.9 30.3 77 -4.4 24
09:15 1020 30.12 849 25.07 -1.2 29.9 78 -4.5 23.9
09:20 1020 30.12 849 25.07 -1.5 29.3 79 -4.6 23.7
09:25 1020 30.12 849 25.07 -1.6 29.2 76 -5.3 22.4
09:30 1020 30.12 849 25.07 -1 30.1 74 -5 22.9
09:35 1020 30.12 849 25.07 -1.3 29.7 74 -5.3 22.5
09:40 1020 30.12 849 25.07 -0.9 30.4 74 -5 23
09:45 1020 30.12 849 25.07 -0.4 31.3 74 -4.5 23.9
09:50 1020 30.12 849 25.07 -0.7 30.8 73 -4.9 23.2
09:55 1020 30.12 849 25.07 0 32.1 69 -4.9 23.2
10:00 1020 30.12 849 25.07 0.1 32.1 71 -4.6 23.6
10:05 1020 30.12 849 25.07 0.1 32.1 71 -4.6 23.8
10:10 1020 30.12 849 25.07 0.8 33.5 67 -4.7 23.6
10:15 1020 30.12 849 25.07 1.1 34 68 -4.2 24.4
10:20 1020 30.12 849 25.07 0.9 33.6 70 -4 24.9
10:25 1020 30.12 849 25.07 -0.2 31.6 74 -4.3 24.2
10:30 1020 30.12 849 25.07 -0 32 74 -4 24.8
10:35 1020 30.12 849 25.07 -0.3 31.5 73 -4.5 23.9
10:40 1020 30.12 849 25.07 -0.1 31.7 72 -4.6 23.8
10:45 1020 30.12 849 25.07 -0.5 31.2 76 -4.1 24.6
10:50 1020 30.12 849 25.07 -0.3 31.5 75 -4.3 24.3
10:55 1020 30.12 849 25.07 0.3 32.6 71 -4.3 24.3
11:00 1020 30.12 849 25.07 0.1 32.2 72 -4.3 24.3
11:05 1020 30.12 849 25.07 0.2 32.4 69 -4.8 23.4
11:10 1020 30.12 849 25.07 0 32.1 71 -4.5 23.8
11:15 1019 30.09 849 25.07 0.3 32.6 69 -4.7 23.6
11:20 1019 30.09 849 25.07 0.5 33 70 -4.2 24.4
11:25 1019 30.09 849 25.07 0.2 32.4 70 -4.6 23.8
11:30 1019 30.09 849 25.07 0.5 32.9 66 -5 22.9
11:35 1019 30.09 848 25.04 0.4 32.7 70 -4.5 23.9
11:40 1019 30.09 848 25.04 0.4 32.7 69 -4.7 23.5
11:45 1019 30.09 848 25.04 0.3 32.5 69 -4.7 23.6
11:50 1019 30.09 848 25.04 0.8 33.5 67 -4.6 23.8
11:55 1019 30.09 848 25.04 0.3 32.6 72 -4.2 24.4
12:00 1019 30.09 848 25.04 0.4 32.8 69 -4.6 23.7
12:05 1019 30.09 848 25.04 1.6 34.8 65 -4.2 24.4
12:10 1019 30.09 848 25.04 2 35.6 64 -4.2 24.5
12:15 1019 30.09 848 25.04 2.8 37.1 60 -4.2 24.4
12:20 1019 30.09 848 25.04 2.9 37.3 61 -3.8 25.2
12:25 1019 30.09 848 25.04 2.9 37.1 61 -4 24.9
12:30 1019 30.09 848 25.04 3.6 38.5 59 -3.7 25.3
12:35 1019 30.09 848 25.04 2.7 36.9 64 -3.4 26
12:40 1019 30.09 848 25.04 1.8 35.3 65 -4.1 24.7
12:45 1019 30.09 848 25.04 2.8 37 66 -3 26.6
12:50 1019 30.09 848 25.04 2.5 36.5 64 -3.7 25.4
12:55 1018 30.06 848 25.04 2.7 36.9 61 -4 24.8
13:00 1018 30.06 848 25.04 3.1 37.6 62 -3.5 25.6
13:05 1018 30.06 847 25.01 2.7 36.9 61 -4 24.9
13:10 1018 30.06 847 25.01 2.3 36.1 65 -3.6 25.5
13:15 1018 30.06 847 25.01 1.9 35.4 66 -3.9 25
13:20 1018 30.06 847 25.01 2.1 35.7 66 -3.6 25.6
13:25 1018 30.06 847 25.01 1.9 35.3 66 -3.9 25
13:30 1018 30.06 847 25.01 1.5 34.7 66 -4.2 24.5
13:35 1018 30.06 847 25.01 1.2 34.2 66 -4.4 24.1
13:40 1018 30.06 847 25.01 2.5 36.5 61 -4.2 24.5
13:45 1018 30.06 847 25.01 3 37.3 60 -4 24.8
13:50 1017 30.03 847 25.01 3.3 37.9 60 -3.8 25.1
13:55 1017 30.03 847 25.01 3.3 38 61 -3.5 25.6
14:00 1017 30.03 847 25.01 2.2 35.9 64 -3.9 25
14:05 1017 30.03 846 24.98 1.9 35.4 65 -4.1 24.7
14:10 1017 30.03 846 24.98 2.2 36 64 -3.8 25.1
14:15 1017 30.03 846 24.98 2.2 36 63 -4 24.8
14:20 1017 30.03 846 24.98 2.1 35.8 61 -4.6 23.7
14:25 1017 30.03 846 24.98 3 37.3 60 -4.1 24.7
14:30 1017 30.03 846 24.98 3 37.4 58 -4.4 24
14:35 1017 30.03 846 24.98 3.3 37.9 58 -4.2 24.4
14:40 1017 30.03 846 24.98 3.6 38.5 57 -4.2 24.5
14:45 1017 30.03 846 24.98 4.5 40.1 55 -3.7 25.4
14:50 1017 30.03 846 24.98 5 41 52 -3.9 24.9
14:55 1016 30 846 24.98 4.8 40.6 54 -3.7 25.4
15:00 1016 30 846 24.98 4.8 40.7 54 -3.6 25.5
15:05 1016 30 846 24.98 4.8 40.6 55 -3.4 25.9
15:10 1016 30 846 24.98 5.3 41.6 53 -3.4 25.9
15:15 1016 30 846 24.98 5.4 41.7 56 -2.5 27.4
15:20 1016 30 846 24.98 5.1 41.2 54 -3.5 25.7
15:25 1016 30 846 24.98 5.3 41.5 55 -2.9 26.7
15:30 1016 30 846 24.98 4 39.3 58 -3.5 25.8
15:35 1016 30 846 24.98 2.6 36.7 63 -3.7 25.3
15:40 1016 30 846 24.98 2.7 36.8 61 -4 24.8
15:45 1016 30 846 24.98 3.5 38.2 59 -3.8 25.1
15:50 1016 30 845 24.95 3.5 38.3 60 -3.5 25.7
15:55 1016 30 845 24.95 4 39.2 61 -2.9 26.8
16:00 1016 30 845 24.95 3.1 37.6 62 -3.4 25.9
16:05 1016 30 845 24.95 2.5 36.5 62 -4.1 24.6
16:10 1016 30 845 24.95 2.9 37.3 62 -3.6 25.6
16:15 1016 30 845 24.95 2.8 37 63 -3.7 25.4
16:20 1016 30 845 24.95 2.7 36.8 64 -3.5 25.6
16:25 1016 30 845 24.95 2.7 36.8 63 -3.6 25.5
16:30 1016 30 845 24.95 2.7 36.9 63 -3.6 25.5
16:35 1016 30 845 24.95 2.7 36.9 62 -3.7 25.3
16:40 1016 30 845 24.95 3.1 37.5 62 -3.5 25.6
16:45 1016 30 845 24.95 2.9 37.3 63 -3.5 25.8
16:50 1016 30 845 24.95 2.9 37.1 64 -3.3 26
16:55 1016 30 845 24.95 3.1 37.7 62 -3.4 25.8
17:00 1016 30 845 24.95 3.2 37.7 63 -3.2 26.2
17:05 1016 30 845 24.95 3.3 38 62 -3.3 26.1
17:10 1016 30 845 24.95 3.4 38 61 -3.4 25.9
17:15 1016 30 845 24.95 3.6 38.5 61 -3.3 26
17:20 1016 30 845 24.95 3.5 38.3 60 -3.5 25.7
17:25 1016 30 845 24.95 3.6 38.5 60 -3.5 25.6
17:30 1016 30 845 24.95 3.8 38.8 59 -3.5 25.7
17:35 1016 30 845 24.95 3.7 38.6 61 -3.1 26.3
17:40 1016 30 845 24.95 3.8 38.9 61 -2.9 26.8
17:45 1016 30 845 24.95 3.6 38.5 62 -3 26.6
17:50 1016 30 845 24.95 3.4 38.2 63 -3 26.5
17:55 1016 30 845 24.95 3.3 38 63 -3 26.7
18:00 1016 30 845 24.95 3.4 38.1 64 -2.9 26.9
18:05 1016 30 845 24.95 3.3 37.9 64 -2.8 26.9
18:10 1016 30 845 24.95 3.2 37.7 67 -2.4 27.7
18:15 1016 30 845 24.95 3.1 37.6 66 -2.6 27.3
18:20 1016 30 845 24.95 3 37.4 67 -2.5 27.6
18:25 1016 30 845 24.95 3.1 37.5 67 -2.5 27.4
18:30 1015 29.97 845 24.95 3.1 37.5 62 -3.5 25.8
18:35 1016 30 845 24.95 3.1 37.6 63 -3.2 26.2
18:40 1016 30 845 24.95 2.9 37.3 68 -2.4 27.6
18:45 1016 30 845 24.95 2.7 36.9 64 -3.4 25.9
18:50 1016 30 845 24.95 2.8 37.1 65 -3.2 26.3
18:55 1016 30 845 24.95 2.8 37.1 61 -4 24.8
19:00 1016 30 845 24.95 3.1 37.5 64 -3 26.6
19:05 1016 30 845 24.95 3.6 38.4 59 -3.8 25.2
19:10 1016 30 845 24.95 4 39.2 58 -3.5 25.6
19:15 1016 30 845 24.95 4.1 39.4 56 -3.9 25
19:20 1016 30 845 24.95 4.1 39.3 60 -3 26.6
19:25 1016 30 845 24.95 3.8 38.8 62 -2.9 26.8
19:30 1016 30 845 24.95 3.4 38.1 65 -2.5 27.5
19:35 1016 30 845 24.95 3.2 37.7 66 -2.5 27.6
19:40 1016 30 846 24.98 3.2 37.8 64 -3 26.7
19:45 1016 30 846 24.98 3.1 37.6 71 -1.7 28.9
19:50 1017 30.03 846 24.98 2.3 36.1 76 -1.6 29.1
19:55 1017 30.03 846 24.98 1.8 35.2 75 -2.2 28.1
20:00 1017 30.03 846 24.98 1.8 35.2 73 -2.6 27.3
20:05 1017 30.03 846 24.98 1.7 35.1 73 -2.6 27.4
20:10 1017 30.03 846 24.98 1.5 34.8 74 -2.7 27.2
20:15 1017 30.03 846 24.98 1.6 34.8 75 -2.4 27.6
20:20 1017 30.03 846 24.98 1.6 34.9 75 -2.4 27.6
20:25 1017 30.03 846 24.98 1.8 35.3 72 -2.7 27.1
20:30 1017 30.03 846 24.98 1.9 35.5 72 -2.6 27.3
20:35 1017 30.03 846 24.98 1.9 35.4 71 -2.8 27
20:40 1017 30.03 846 24.98 1.9 35.4 71 -2.9 26.8
20:45 1017 30.03 846 24.98 1.9 35.5 70 -3 26.7
20:50 1017 30.03 847 25.01 1.9 35.5 69 -3.1 26.5
20:55 1017 30.03 847 25.01 2 35.5 68 -3.3 26
21:00 1017 30.03 847 25.01 2 35.6 67 -3.4 25.8
21:05 1017 30.03 847 25.01 2.1 35.9 65 -3.7 25.4
21:10 1018 30.06 847 25.01 2.2 35.9 64 -4 24.8
21:15 1018 30.06 847 25.01 2.2 35.9 65 -3.7 25.3
21:20 1017 30.03 847 25.01 2.3 36.2 64 -3.8 25.2
21:25 1018 30.06 847 25.01 2.4 36.3 64 -3.6 25.5
21:30 1018 30.06 847 25.01 2 35.5 71 -2.7 27.1
21:35 1018 30.06 847 25.01 1.5 34.7 72 -3 26.7
21:40 1018 30.06 847 25.01 1.1 33.9 74 -3 26.6
21:45 1018 30.06 847 25.01 0.9 33.7 75 -2.9 26.7
21:50 1018 30.06 847 25.01 1 33.8 74 -3 26.5
21:55 1018 30.06 847 25.01 1.1 34 74 -3 26.6
22:00 1018 30.06 847 25.01 1.1 34 73 -3.1 26.3
22:05 1018 30.06 847 25.01 1.4 34.5 70 -3.6 25.6
22:10 1018 30.06 847 25.01 1.5 34.8 67 -4 24.8
22:15 1018 30.06 847 25.01 1.1 33.9 68 -4.3 24.3
22:20 1018 30.06 847 25.01 1.2 34.1 69 -3.9 24.9
22:25 1018 30.06 847 25.01 1 33.8 72 -3.5 25.7
22:30 1018 30.06 847 25.01 0.9 33.6 73 -3.4 26
22:35 1018 30.06 847 25.01 0.7 33.3 75 -3.3 26.1
22:40 1018 30.06 847 25.01 0.5 32.9 77 -3 26.5
22:45 1018 30.06 847 25.01 0.2 32.3 78 -3.1 26.4
22:50 1018 30.06 848 25.04 -0.1 31.9 83 -2.6 27.3
22:55 1018 30.06 848 25.04 -0.3 31.5 87 -2.1 28.2
23:00 1018 30.06 848 25.04 -0.7 30.8 91 -2 28.4
23:05 1018 30.06 848 25.04 -0.7 30.7 92 -1.9 28.6
23:10 1018 30.06 848 25.04 -0.6 30.9 91 -1.9 28.5
23:15 1018 30.06 848 25.04 -0.5 31.1 91 -1.8 28.8
23:20 1018 30.06 848 25.04 -0.6 30.9 92 -1.8 28.8
23:25 1018 30.06 848 25.04 -0.7 30.7 93 -1.7 29
23:30 1018 30.06 848 25.04 -0.7 30.8 94 -1.6 29.1
23:35 1018 30.06 848 25.04 -0.7 30.7 94 -1.6 29.2
23:40 1018 30.06 848 25.04 -0.8 30.6 95 -1.6 29.2
23:45 1018 30.06 847 25.01 -0.8 30.6 95 -1.5 29.3
23:50 1018 30.06 848 25.04 -0.8 30.5 95 -1.6 29.1
23:55 1018 30.06 848 25.04 -0.9 30.4 95 -1.6 29.2
24:00 1018 30.06 848 25.04 -0.9 30.5 95 -1.5 29.3